Time;durP1;ratioP1;P1;durP2;ratioP2;P2;SDS_P1;SDS_P2;PMS_P1;PMS_P2;Temp;Humidity;BMP_temperature;BMP_pressure;BME280_temperature;BME280_humidity;BME280_pressure;Samples;Min_cycle;Max_cycle;Signal;HPM_P1;HPM_P2
2022/04/02 00:01:12;;;;;;;0.30;0.20;;;;;;;;;;4211612;28;20073;-33
2022/04/02 00:03:13;;;;;;;0.15;0.15;;;;;;;;;;4211624;28;20051;-33
2022/04/02 00:05:14;;;;;;;0.40;0.25;;;;;;;;;;4211342;28;20109;-33
2022/04/02 00:07:15;;;;;;;0.25;0.25;;;;;;;;;;4211267;28;20117;-33
2022/04/02 00:09:16;;;;;;;3.95;0.40;;;;;;;;;;4211461;28;20445;-33
2022/04/02 00:11:17;;;;;;;1.58;0.30;;;;;;;;;;4210935;28;20142;-33
2022/04/02 00:13:18;;;;;;;0.45;0.30;;;;;;;;;;4211109;28;20048;-33
2022/04/02 00:15:19;;;;;;;0.47;0.30;;;;;;;;;;4211107;28;20052;-33
2022/04/02 00:17:20;;;;;;;0.20;0.10;;;;;;;;;;4212996;28;20680;-33
2022/04/02 00:19:22;;;;;;;0.38;0.20;;;;;;;;;;4213170;28;20051;-33
2022/04/02 00:21:23;;;;;;;0.20;0.20;;;;;;;;;;4214775;28;20048;-32
2022/04/02 00:23:40;;;;;;;0.38;0.20;;;;;;;;;;4214593;28;20043;-33
2022/04/02 00:25:41;;;;;;;0.20;0.20;;;;;;;;;;4214227;28;20055;-33
2022/04/02 00:27:42;;;;;;;0.20;0.20;;;;;;;;;;4214503;28;20502;-33
2022/04/02 00:29:43;;;;;;;0.73;0.22;;;;;;;;;;4214184;28;20055;-33
2022/04/02 00:31:44;;;;;;;0.20;0.20;;;;;;;;;;4214410;28;20047;-35
2022/04/02 00:33:46;;;;;;;0.40;0.30;;;;;;;;;;4206567;28;20041;-33
2022/04/02 00:35:47;;;;;;;0.68;0.30;;;;;;;;;;4195584;28;20059;-33
2022/04/02 00:37:49;;;;;;;0.20;0.20;;;;;;;;;;4194370;28;20114;-33
2022/04/02 00:39:50;;;;;;;0.35;0.20;;;;;;;;;;4195305;28;20403;-34
2022/04/02 00:41:51;;;;;;;0.25;0.25;;;;;;;;;;4195639;28;20052;-33
2022/04/02 00:43:56;;;;;;;0.40;0.15;;;;;;;;;;4195912;28;20063;-33
2022/04/02 00:45:59;;;;;;;0.38;0.25;;;;;;;;;;4195177;28;20095;-33
2022/04/02 00:47:59;;;;;;;0.50;0.30;;;;;;;;;;4194082;28;20094;-33
2022/04/02 00:50:00;;;;;;;0.25;0.20;;;;;;;;;;4194164;28;20056;-33
2022/04/02 00:52:02;;;;;;;0.20;0.10;;;;;;;;;;4194257;28;20601;-33
2022/04/02 00:54:03;;;;;;;0.45;0.20;;;;;;;;;;4195288;28;20384;-33
2022/04/02 00:56:04;;;;;;;0.50;0.22;;;;;;;;;;4195145;28;20044;-33
2022/04/02 00:58:06;;;;;;;0.60;0.25;;;;;;;;;;4195775;28;20052;-33
2022/04/02 01:00:07;;;;;;;0.60;0.30;;;;;;;;;;4210893;28;20318;-33
2022/04/02 01:02:09;;;;;;;0.68;0.28;;;;;;;;;;4210665;28;20052;-33
2022/04/02 01:04:11;;;;;;;1.15;0.45;;;;;;;;;;4210619;28;20047;-33
2022/04/02 01:06:16;;;;;;;0.43;0.30;;;;;;;;;;4210680;28;20377;-33
2022/04/02 01:08:18;;;;;;;0.30;0.20;;;;;;;;;;4211991;28;20048;-35
2022/04/02 01:10:23;;;;;;;0.30;0.22;;;;;;;;;;4209747;28;20048;-33
2022/04/02 01:12:25;;;;;;;0.50;0.20;;;;;;;;;;4210275;28;20450;-33
2022/04/02 01:14:27;;;;;;;0.45;0.43;;;;;;;;;;4210464;28;20113;-33
2022/04/02 01:16:34;;;;;;;1.90;0.30;;;;;;;;;;4210640;28;20048;-33
2022/04/02 01:18:39;;;;;;;0.20;0.20;;;;;;;;;;4210782;28;20097;-33
2022/04/02 01:20:40;;;;;;;0.22;0.20;;;;;;;;;;4210208;28;20118;-33
2022/04/02 01:22:41;;;;;;;0.50;0.20;;;;;;;;;;4209786;28;20074;-33
2022/04/02 01:24:42;;;;;;;0.40;0.30;;;;;;;;;;4211754;28;20081;-33
2022/04/02 01:26:43;;;;;;;0.22;0.20;;;;;;;;;;4195463;28;20048;-33
2022/04/02 01:28:54;;;;;;;0.73;0.25;;;;;;;;;;4211393;28;20055;-33
2022/04/02 01:31:05;;;;;;;0.65;0.20;;;;;;;;;;4212455;28;20060;-33
2022/04/02 01:33:06;;;;;;;0.20;0.20;;;;;;;;;;4212289;28;20048;-33
2022/04/02 01:35:08;;;;;;;0.30;0.25;;;;;;;;;;4213236;28;20456;-33
2022/04/02 01:37:15;;;;;;;0.40;0.25;;;;;;;;;;4211957;28;20047;-33
2022/04/02 01:39:20;;;;;;;0.25;0.25;;;;;;;;;;4212195;28;20051;-33
2022/04/02 01:41:22;;;;;;;0.35;0.20;;;;;;;;;;4211440;28;20101;-33
2022/04/02 01:43:24;;;;;;;0.65;0.13;;;;;;;;;;4211979;28;20083;-33
2022/04/02 01:45:29;;;;;;;0.73;0.32;;;;;;;;;;4212069;28;20117;-33
2022/04/02 01:47:36;;;;;;;0.30;0.28;;;;;;;;;;4213181;28;20177;-33
2022/04/02 01:49:38;;;;;;;0.52;0.30;;;;;;;;;;4211839;28;20062;-33
2022/04/02 01:51:39;;;;;;;0.90;0.28;;;;;;;;;;4213462;28;20131;-33
2022/04/02 01:53:45;;;;;;;0.57;0.52;;;;;;;;;;4211866;28;20382;-33
2022/04/02 01:55:48;;;;;;;0.88;0.25;;;;;;;;;;4210963;28;20098;-33
2022/04/02 01:58:21;;;;;;;0.20;0.20;;;;;;;;;;4219786;27;20040;-33
2022/04/02 02:00:24;;;;;;;0.55;0.30;;;;;;;;;;4211882;28;20048;-33
2022/04/02 02:02:26;;;;;;;0.30;0.30;;;;;;;;;;4211674;28;20078;-34
2022/04/02 02:04:27;;;;;;;0.75;0.28;;;;;;;;;;4211523;28;20596;-33
2022/04/02 02:06:30;;;;;;;0.25;0.25;;;;;;;;;;4212890;28;20425;-33
2022/04/02 02:08:33;;;;;;;0.70;0.20;;;;;;;;;;4194813;28;20037;-33
2022/04/02 02:10:38;;;;;;;0.45;0.20;;;;;;;;;;4212317;28;20055;-33
2022/04/02 02:13:12;;;;;;;0.17;0.10;;;;;;;;;;4211403;28;20056;-33
2022/04/02 02:15:19;;;;;;;0.28;0.25;;;;;;;;;;4212965;28;20051;-33
2022/04/02 02:17:30;;;;;;;0.22;0.22;;;;;;;;;;4211434;28;20565;-33
2022/04/02 02:19:35;;;;;;;0.30;0.20;;;;;;;;;;4212552;28;20407;-33
2022/04/02 02:21:36;;;;;;;0.35;0.22;;;;;;;;;;4212806;28;20117;-33
2022/04/02 02:23:37;;;;;;;0.35;0.20;;;;;;;;;;4212563;28;20051;-33
2022/04/02 02:25:38;;;;;;;0.63;0.22;;;;;;;;;;4212328;28;20055;-33
2022/04/02 02:27:40;;;;;;;0.20;0.20;;;;;;;;;;4211289;28;20090;-33
2022/04/02 02:29:41;;;;;;;0.38;0.20;;;;;;;;;;4211190;28;20074;-33
2022/04/02 02:31:52;;;;;;;0.40;0.20;;;;;;;;;;4211593;28;20120;-33
2022/04/02 02:36:18;;;;;;;0.75;0.30;;;;;;;;;;4211188;28;20090;-33
2022/04/02 02:38:28;;;;;;;0.20;0.20;;;;;;;;;;4211319;28;20056;-33
2022/04/02 02:40:43;;;;;;;0.35;0.25;;;;;;;;;;4210994;28;20055;-33
2022/04/02 02:42:48;;;;;;;0.88;0.57;;;;;;;;;;4211360;28;20090;-33
2022/04/02 02:45:03;;;;;;;0.60;0.28;;;;;;;;;;4210922;28;20060;-33
2022/04/02 02:47:06;;;;;;;1.08;0.30;;;;;;;;;;4194033;28;20044;-34
2022/04/02 02:49:09;;;;;;;0.40;0.20;;;;;;;;;;4211028;28;20081;-33
2022/04/02 02:51:13;;;;;;;0.30;0.30;;;;;;;;;;4210737;28;20113;-33
2022/04/02 02:53:14;;;;;;;0.22;0.22;;;;;;;;;;4211072;28;20044;-33
2022/04/02 02:55:15;;;;;;;0.32;0.30;;;;;;;;;;4211674;28;20117;-33
2022/04/02 02:57:16;;;;;;;1.00;0.20;;;;;;;;;;4212432;28;20094;-33
2022/04/02 02:59:17;;;;;;;0.85;0.30;;;;;;;;;;4210507;28;20097;-33
2022/04/02 03:01:18;;;;;;;0.68;0.40;;;;;;;;;;4211913;28;20055;-33
2022/04/02 03:03:23;;;;;;;0.32;0.20;;;;;;;;;;4210588;28;20129;-33
2022/04/02 03:05:27;;;;;;;0.50;0.20;;;;;;;;;;4210794;28;20125;-33
2022/04/02 03:07:35;;;;;;;0.30;0.20;;;;;;;;;;4210477;28;20098;-33
2022/04/02 03:09:38;;;;;;;0.40;0.30;;;;;;;;;;4210362;28;20097;-33
2022/04/02 03:11:39;;;;;;;0.20;0.20;;;;;;;;;;4210533;28;20040;-33
2022/04/02 03:13:41;;;;;;;0.25;0.20;;;;;;;;;;4212019;28;20088;-33
2022/04/02 03:15:45;;;;;;;0.20;0.20;;;;;;;;;;4210246;28;20051;-33
2022/04/02 03:17:47;;;;;;;0.45;0.20;;;;;;;;;;4210831;28;20048;-33
2022/04/02 03:19:48;;;;;;;0.90;0.40;;;;;;;;;;4211543;28;20048;-33
2022/04/02 03:21:49;;;;;;;0.40;0.20;;;;;;;;;;4211752;28;20105;-33
2022/04/02 03:23:50;;;;;;;0.95;0.40;;;;;;;;;;4211732;28;20116;-34
2022/04/02 03:25:55;;;;;;;0.45;0.30;;;;;;;;;;4209890;28;20479;-33
2022/04/02 03:27:57;;;;;;;0.75;0.28;;;;;;;;;;4210556;28;20055;-33
2022/04/02 03:29:58;;;;;;;0.47;0.30;;;;;;;;;;4210190;28;20429;-33
2022/04/02 03:32:00;;;;;;;0.50;0.30;;;;;;;;;;4193603;28;20098;-33
2022/04/02 03:34:04;;;;;;;0.60;0.30;;;;;;;;;;4193685;28;20561;-33
2022/04/02 03:36:05;;;;;;;0.50;0.47;;;;;;;;;;4193582;28;20049;-33
2022/04/02 03:38:08;;;;;;;1.05;0.30;;;;;;;;;;4193626;28;20064;-33
2022/04/02 03:40:14;;;;;;;0.20;0.20;;;;;;;;;;4194310;28;20253;-33
2022/04/02 03:42:15;;;;;;;0.98;0.30;;;;;;;;;;4193775;28;20056;-33
2022/04/02 03:44:17;;;;;;;0.40;0.30;;;;;;;;;;4193680;28;20121;-33
2022/04/02 03:48:39;;;;;;;0.43;0.32;;;;;;;;;;4193526;28;20102;-33
2022/04/02 03:50:42;;;;;;;0.28;0.20;;;;;;;;;;4193462;28;20397;-33
2022/04/02 03:52:50;;;;;;;0.50;0.32;;;;;;;;;;4197083;28;20045;-33
2022/04/02 03:54:57;;;;;;;0.47;0.40;;;;;;;;;;4196174;28;20592;-33
2022/04/02 03:56:58;;;;;;;0.30;0.20;;;;;;;;;;4180401;28;20052;-33
2022/04/02 03:58:59;;;;;;;0.40;0.20;;;;;;;;;;4196673;28;20045;-33
2022/04/02 04:01:00;;;;;;;0.28;0.20;;;;;;;;;;4196557;28;20098;-33
2022/04/02 04:03:03;;;;;;;0.50;0.32;;;;;;;;;;4196741;28;20080;-33
2022/04/02 04:05:08;;;;;;;0.30;0.30;;;;;;;;;;4196488;28;20094;-33
2022/04/02 04:07:11;;;;;;;1.98;0.30;;;;;;;;;;4196500;28;20044;-35
2022/04/02 04:09:13;;;;;;;0.68;0.22;;;;;;;;;;4196540;28;20119;-33
2022/04/02 04:11:18;;;;;;;0.45;0.40;;;;;;;;;;4196276;28;20153;-33
2022/04/02 04:13:23;;;;;;;1.10;0.55;;;;;;;;;;4196638;28;20083;-35
2022/04/02 04:15:25;;;;;;;0.28;0.20;;;;;;;;;;4213305;28;20052;-33
2022/04/02 04:17:28;;;;;;;0.38;0.38;;;;;;;;;;4213579;28;20056;-35
2022/04/02 04:19:31;;;;;;;0.32;0.28;;;;;;;;;;4213058;28;20117;-35
2022/04/02 04:21:34;;;;;;;0.20;0.20;;;;;;;;;;4214562;28;20055;-35
2022/04/02 04:23:35;;;;;;;0.25;0.25;;;;;;;;;;4213211;28;20052;-35
2022/04/02 04:25:39;;;;;;;0.20;0.20;;;;;;;;;;4212679;28;20048;-35
2022/04/02 04:27:42;;;;;;;0.38;0.20;;;;;;;;;;4213176;28;20036;-35
2022/04/02 04:29:43;;;;;;;0.28;0.25;;;;;;;;;;4213010;28;20454;-35
2022/04/02 04:31:44;;;;;;;0.38;0.20;;;;;;;;;;4213174;28;20627;-33
2022/04/02 04:33:47;;;;;;;0.47;0.30;;;;;;;;;;4212948;28;20204;-35
2022/04/02 04:35:49;;;;;;;0.68;0.20;;;;;;;;;;4214442;28;20071;-34
2022/04/02 04:37:51;;;;;;;0.30;0.20;;;;;;;;;;4214394;28;20106;-34
2022/04/02 04:39:57;;;;;;;0.35;0.35;;;;;;;;;;4196490;28;20271;-34
2022/04/02 04:41:58;;;;;;;0.22;0.20;;;;;;;;;;4213074;28;20105;-34
2022/04/02 04:44:04;;;;;;;0.20;0.20;;;;;;;;;;4213215;28;20044;-41
2022/04/02 04:46:10;;;;;;;0.30;0.30;;;;;;;;;;4212938;28;20201;-34
2022/04/02 04:48:13;;;;;;;0.38;0.30;;;;;;;;;;4213968;28;20051;-34
2022/04/02 04:50:21;;;;;;;0.30;0.30;;;;;;;;;;4214288;28;20052;-34
2022/04/02 04:52:27;;;;;;;0.60;0.20;;;;;;;;;;4212845;28;20044;-34
2022/04/02 04:54:28;;;;;;;0.50;0.22;;;;;;;;;;4212525;28;20040;-34
2022/04/02 04:56:30;;;;;;;0.85;0.30;;;;;;;;;;4212345;28;20102;-34
2022/04/02 04:58:31;;;;;;;0.82;0.30;;;;;;;;;;4212747;28;20048;-34
2022/04/02 05:00:37;;;;;;;0.20;0.20;;;;;;;;;;4212404;28;20147;-34
2022/04/02 05:02:39;;;;;;;0.20;0.20;;;;;;;;;;4211258;28;20051;-35
2022/04/02 05:04:41;;;;;;;0.30;0.30;;;;;;;;;;4212541;28;20070;-34
2022/04/02 05:06:43;;;;;;;0.35;0.30;;;;;;;;;;4212441;28;20043;-34
2022/04/02 05:08:47;;;;;;;0.40;0.20;;;;;;;;;;4212397;28;20044;-34
2022/04/02 05:10:49;;;;;;;0.25;0.20;;;;;;;;;;4212083;28;20081;-34
2022/04/02 05:12:55;;;;;;;0.40;0.40;;;;;;;;;;4212171;28;20560;-34
2022/04/02 05:14:57;;;;;;;0.30;0.30;;;;;;;;;;4212185;28;20543;-34
2022/04/02 05:16:59;;;;;;;0.17;0.17;;;;;;;;;;4195450;28;20460;-34
2022/04/02 05:19:06;;;;;;;0.30;0.20;;;;;;;;;;4212516;28;20056;-34
2022/04/02 05:21:09;;;;;;;0.57;0.30;;;;;;;;;;4212208;28;20113;-34
2022/04/02 05:23:11;;;;;;;0.47;0.20;;;;;;;;;;4212503;28;20048;-34
2022/04/02 05:25:12;;;;;;;0.10;0.10;;;;;;;;;;4212985;28;20402;-34
2022/04/02 05:27:16;;;;;;;0.38;0.20;;;;;;;;;;4212233;28;20429;-34
2022/04/02 05:29:18;;;;;;;0.35;0.20;;;;;;;;;;4212128;28;20063;-34
2022/04/02 05:31:19;;;;;;;0.20;0.15;;;;;;;;;;4212073;28;20200;-40
2022/04/02 05:33:21;;;;;;;0.32;0.20;;;;;;;;;;4213652;28;20513;-34
2022/04/02 05:35:25;;;;;;;0.20;0.20;;;;;;;;;;4211963;28;20113;-33
2022/04/02 05:37:27;;;;;;;0.20;0.20;;;;;;;;;;4213387;28;20181;-34
2022/04/02 05:39:28;;;;;;;0.52;0.40;;;;;;;;;;4212186;28;20402;-34
2022/04/02 05:41:29;;;;;;;0.40;0.30;;;;;;;;;;4212913;28;20142;-34
2022/04/02 05:43:30;;;;;;;0.50;0.25;;;;;;;;;;4212096;28;20487;-34
2022/04/02 05:45:32;;;;;;;0.35;0.20;;;;;;;;;;4211770;28;20113;-33
2022/04/02 05:47:40;;;;;;;0.40;0.30;;;;;;;;;;4211877;28;20056;-34
2022/04/02 05:49:41;;;;;;;0.40;0.20;;;;;;;;;;4213169;28;20483;-34
2022/04/02 05:51:42;;;;;;;0.30;0.30;;;;;;;;;;4213187;28;20143;-34
2022/04/02 05:53:43;;;;;;;0.20;0.20;;;;;;;;;;4213279;28;20079;-34
2022/04/02 05:55:45;;;;;;;0.13;0.13;;;;;;;;;;4212521;28;20044;-34
2022/04/02 05:57:48;;;;;;;0.63;0.32;;;;;;;;;;4213155;28;20411;-34
2022/04/02 05:59:49;;;;;;;0.30;0.30;;;;;;;;;;4213084;28;20136;-34
2022/04/02 06:01:50;;;;;;;0.40;0.35;;;;;;;;;;4213096;28;20134;-34
2022/04/02 06:03:51;;;;;;;0.30;0.20;;;;;;;;;;4213189;28;20052;-34
2022/04/02 06:05:52;;;;;;;0.25;0.20;;;;;;;;;;4212795;28;20105;-34
2022/04/02 06:07:53;;;;;;;0.20;0.20;;;;;;;;;;4213095;28;20093;-33
2022/04/02 06:09:54;;;;;;;0.47;0.30;;;;;;;;;;4212501;28;20411;-33
2022/04/02 06:11:55;;;;;;;0.32;0.20;;;;;;;;;;4212520;28;20048;-33
2022/04/02 06:13:57;;;;;;;0.30;0.20;;;;;;;;;;4212470;28;20044;-34
2022/04/02 06:15:58;;;;;;;0.50;0.30;;;;;;;;;;4212429;28;20401;-33
2022/04/02 06:17:59;;;;;;;0.30;0.20;;;;;;;;;;4213018;28;20100;-34
2022/04/02 06:19:59;;;;;;;0.20;0.20;;;;;;;;;;4212506;28;20091;-34
2022/04/02 06:22:01;;;;;;;0.75;0.32;;;;;;;;;;4212649;28;20503;-34
2022/04/02 06:24:05;;;;;;;0.35;0.20;;;;;;;;;;4212444;28;20194;-33
2022/04/02 06:26:06;;;;;;;0.52;0.30;;;;;;;;;;4212408;28;20048;-34
2022/04/02 06:28:07;;;;;;;0.20;0.20;;;;;;;;;;4212451;28;20064;-34
2022/04/02 06:30:09;;;;;;;0.30;0.30;;;;;;;;;;4212161;28;20173;-34
2022/04/02 06:32:10;;;;;;;0.20;0.20;;;;;;;;;;4212524;28;20051;-34
2022/04/02 06:34:11;;;;;;;0.75;0.43;;;;;;;;;;4212678;28;20048;-34
2022/04/02 06:36:14;;;;;;;0.55;0.38;;;;;;;;;;4212275;28;20061;-34
2022/04/02 06:38:16;;;;;;;0.20;0.20;;;;;;;;;;4212553;28;20047;-34
2022/04/02 06:40:17;;;;;;;0.55;0.30;;;;;;;;;;4210432;28;20506;-33
2022/04/02 06:42:18;;;;;;;0.63;0.20;;;;;;;;;;4212663;28;20044;-34
2022/04/02 06:44:25;;;;;;;0.40;0.20;;;;;;;;;;4211076;28;20048;-34
2022/04/02 06:46:26;;;;;;;0.73;0.30;;;;;;;;;;4211900;28;20403;-34
2022/04/02 06:48:27;;;;;;;0.32;0.22;;;;;;;;;;4212103;28;20105;-34
2022/04/02 06:50:28;;;;;;;0.50;0.35;;;;;;;;;;4210673;28;20563;-34
2022/04/02 06:52:29;;;;;;;0.60;0.30;;;;;;;;;;4212207;28;20048;-34
2022/04/02 06:54:30;;;;;;;0.30;0.28;;;;;;;;;;4211934;28;20131;-34
2022/04/02 06:56:31;;;;;;;0.30;0.30;;;;;;;;;;4210342;28;20066;-34
2022/04/02 06:58:37;;;;;;;0.43;0.30;;;;;;;;;;4212240;28;20043;-34
2022/04/02 07:00:38;;;;;;;0.45;0.30;;;;;;;;;;4212067;28;20052;-33
2022/04/02 07:02:39;;;;;;;0.20;0.20;;;;;;;;;;4211900;28;20051;-34
2022/04/02 07:04:40;;;;;;;0.20;0.20;;;;;;;;;;4212292;28;20091;-34
2022/04/02 07:06:44;;;;;;;0.20;0.20;;;;;;;;;;4212095;28;20723;-34
2022/04/02 07:08:45;;;;;;;0.20;0.20;;;;;;;;;;4211786;28;20380;-34
2022/04/02 07:10:46;;;;;;;0.40;0.35;;;;;;;;;;4211733;28;20108;-34
2022/04/02 07:12:47;;;;;;;0.20;0.20;;;;;;;;;;4211813;28;20109;-34
2022/04/02 07:14:48;;;;;;;0.45;0.30;;;;;;;;;;4211851;28;20046;-33
2022/04/02 07:16:49;;;;;;;0.15;0.10;;;;;;;;;;4211979;28;20044;-34
2022/04/02 07:18:50;;;;;;;0.22;0.22;;;;;;;;;;4212102;28;20186;-34
2022/04/02 07:20:52;;;;;;;0.30;0.30;;;;;;;;;;4211625;28;20117;-34
2022/04/02 07:22:54;;;;;;;0.20;0.20;;;;;;;;;;4211877;28;20074;-34
2022/04/02 07:24:56;;;;;;;0.30;0.30;;;;;;;;;;4211169;28;20398;-34
2022/04/02 07:26:57;;;;;;;0.22;0.20;;;;;;;;;;4211295;28;20052;-34
2022/04/02 07:28:59;;;;;;;0.25;0.22;;;;;;;;;;4211673;28;20109;-34
2022/04/02 07:31:00;;;;;;;0.55;0.28;;;;;;;;;;4211642;28;20111;-34
2022/04/02 07:33:02;;;;;;;0.30;0.28;;;;;;;;;;4210378;28;20495;-34
2022/04/02 07:35:03;;;;;;;0.20;0.20;;;;;;;;;;4211708;28;20217;-34
2022/04/02 07:37:16;;;;;;;0.40;0.20;;;;;;;;;;4210635;28;20047;-34
2022/04/02 07:39:23;;;;;;;0.20;0.20;;;;;;;;;;4211830;28;20052;-34
2022/04/02 07:41:36;;;;;;;0.70;0.20;;;;;;;;;;4211335;28;20098;-34
2022/04/02 07:43:43;;;;;;;0.20;0.10;;;;;;;;;;4211477;28;20051;-34
2022/04/02 07:45:47;;;;;;;0.30;0.30;;;;;;;;;;4210298;28;20572;-34
2022/04/02 07:47:54;;;;;;;0.28;0.28;;;;;;;;;;4210465;28;20051;-34
2022/04/02 07:49:58;;;;;;;0.68;0.30;;;;;;;;;;4211776;28;20044;-34
2022/04/02 07:52:00;;;;;;;0.65;0.30;;;;;;;;;;4211736;28;20325;-34
2022/04/02 07:54:02;;;;;;;0.20;0.17;;;;;;;;;;4211371;28;20372;-34
2022/04/02 07:56:04;;;;;;;0.10;0.10;;;;;;;;;;4209661;28;20047;-34
2022/04/02 07:58:09;;;;;;;0.77;0.20;;;;;;;;;;4211723;28;20048;-34
2022/04/02 08:00:11;;;;;;;0.20;0.20;;;;;;;;;;4211746;28;20117;-34
2022/04/02 08:04:35;;;;;;;0.20;0.20;;;;;;;;;;4211509;28;20101;-34
2022/04/02 08:06:36;;;;;;;0.20;0.20;;;;;;;;;;4211403;28;20048;-34
2022/04/02 08:08:38;;;;;;;0.25;0.20;;;;;;;;;;4211744;28;20044;-35
2022/04/02 08:10:45;;;;;;;0.20;0.20;;;;;;;;;;4209567;28;20406;-35
2022/04/02 08:12:47;;;;;;;0.20;0.20;;;;;;;;;;4210023;28;20044;-34
2022/04/02 08:14:50;;;;;;;0.30;0.25;;;;;;;;;;4211221;28;20108;-34
2022/04/02 08:16:51;;;;;;;0.30;0.25;;;;;;;;;;4210013;28;20081;-34
2022/04/02 08:18:53;;;;;;;0.38;0.22;;;;;;;;;;4211401;28;20052;-35
2022/04/02 08:20:56;;;;;;;0.22;0.20;;;;;;;;;;4193569;28;20189;-35
2022/04/02 08:23:05;;;;;;;0.20;0.20;;;;;;;;;;4210330;28;20050;-34
2022/04/02 08:25:08;;;;;;;0.45;0.20;;;;;;;;;;4209487;28;20523;-35
2022/04/02 08:27:24;;;;;;;0.40;0.30;;;;;;;;;;4211339;28;20052;-34
2022/04/02 08:29:43;;;;;;;0.20;0.20;;;;;;;;;;4211203;28;20048;-34
2022/04/02 08:32:03;;;;;;;0.30;0.30;;;;;;;;;;4211357;28;20055;-34
2022/04/02 08:34:10;;;;;;;1.23;0.20;;;;;;;;;;4211446;28;20047;-35
2022/04/02 08:36:23;;;;;;;0.17;0.17;;;;;;;;;;4211221;28;20074;-34
2022/04/02 08:38:24;;;;;;;0.20;0.13;;;;;;;;;;4214299;28;20052;-34
2022/04/02 08:40:44;;;;;;;0.22;0.20;;;;;;;;;;4213968;28;20123;-35
2022/04/02 08:42:51;;;;;;;0.10;0.10;;;;;;;;;;4214706;28;20051;-34
2022/04/02 08:45:01;;;;;;;0.20;0.20;;;;;;;;;;4212929;28;20060;-34
2022/04/02 08:47:23;;;;;;;0.20;0.20;;;;;;;;;;4214113;28;20453;-34
2022/04/02 08:49:36;;;;;;;0.20;0.20;;;;;;;;;;4214528;28;20102;-34
2022/04/02 08:51:42;;;;;;;0.75;0.28;;;;;;;;;;4214194;28;20475;-34
2022/04/02 08:53:42;;;;;;;0.38;0.30;;;;;;;;;;4214227;28;20117;-34
2022/04/02 08:55:50;;;;;;;0.75;0.20;;;;;;;;;;4212175;28;20040;-34
2022/04/02 08:57:52;;;;;;;0.20;0.20;;;;;;;;;;4214147;28;20074;-34
2022/04/02 09:00:03;;;;;;;0.32;0.32;;;;;;;;;;4213908;28;20051;-34
2022/04/02 09:02:18;;;;;;;0.32;0.20;;;;;;;;;;4214060;28;20052;-35
2022/04/02 09:04:42;;;;;;;0.17;0.17;;;;;;;;;;4214049;28;20051;-34
2022/04/02 09:06:42;;;;;;;;;;;;;;;;;;4214410;28;20597;-35
2022/04/02 09:09:03;;;;;;;0.82;0.28;;;;;;;;;;4213819;28;19946;-34
2022/04/02 09:11:09;;;;;;;0.30;0.30;;;;;;;;;;4213685;28;20048;-35
2022/04/02 09:13:29;;;;;;;0.40;0.22;;;;;;;;;;4213702;28;20048;-34
2022/04/02 09:15:56;;;;;;;0.20;0.20;;;;;;;;;;4213581;28;20048;-35
2022/04/02 09:18:17;;;;;;;0.20;0.20;;;;;;;;;;4212769;28;20097;-34
2022/04/02 09:20:47;;;;;;;0.20;0.20;;;;;;;;;;4213535;28;20628;-35
2022/04/02 09:22:48;;;;;;;0.28;0.10;;;;;;;;;;4216985;28;20556;-35
2022/04/02 09:25:04;;;;;;;0.13;0.13;;;;;;;;;;4213205;28;20047;-35
2022/04/02 09:27:23;;;;;;;0.75;0.20;;;;;;;;;;4213984;28;20059;-34
2022/04/02 09:29:47;;;;;;;0.17;0.17;;;;;;;;;;4213868;28;20101;-34
2022/04/02 09:32:05;;;;;;;0.55;0.20;;;;;;;;;;4215631;28;20192;-35
2022/04/02 09:34:09;;;;;;;0.32;0.28;;;;;;;;;;4213534;28;20062;-34
2022/04/02 09:36:28;;;;;;;0.30;0.20;;;;;;;;;;4213590;28;20181;-34
2022/04/02 09:38:29;;;;;;;;;;;;;;;;;;4212544;28;20059;-34
2022/04/02 09:40:38;;;;;;;0.30;0.20;;;;;;;;;;4213008;28;19935;-35
2022/04/02 09:42:41;;;;;;;0.40;0.20;;;;;;;;;;4213638;28;20052;-35
2022/04/02 09:44:55;;;;;;;0.10;0.10;;;;;;;;;;4213198;28;20112;-34
2022/04/02 09:47:05;;;;;;;0.22;0.17;;;;;;;;;;4213337;28;20048;-34
2022/04/02 09:49:13;;;;;;;0.25;0.20;;;;;;;;;;4212440;28;20048;-35
2022/04/02 09:51:16;;;;;;;0.20;0.20;;;;;;;;;;4212972;28;20181;-35
2022/04/02 09:53:23;;;;;;;0.38;0.30;;;;;;;;;;4213070;28;20109;-35
2022/04/02 09:55:29;;;;;;;0.30;0.30;;;;;;;;;;4212671;28;20105;-35
2022/04/02 09:57:37;;;;;;;0.20;0.15;;;;;;;;;;4213064;28;20449;-35
2022/04/02 09:59:45;;;;;;;0.45;0.20;;;;;;;;;;4213033;28;20352;-34
2022/04/02 10:01:49;;;;;;;0.20;0.20;;;;;;;;;;4213076;28;20071;-35
2022/04/02 10:04:00;;;;;;;0.40;0.20;;;;;;;;;;4212936;28;20056;-34
2022/04/02 10:06:07;;;;;;;0.80;0.20;;;;;;;;;;4212814;28;20108;-35
2022/04/02 10:08:27;;;;;;;0.10;0.10;;;;;;;;;;4212837;28;20060;-35
2022/04/02 10:10:29;;;;;;;0.25;0.20;;;;;;;;;;4212457;28;20494;-35
2022/04/02 10:12:32;;;;;;;0.30;0.20;;;;;;;;;;4212886;28;20052;-34
2022/04/02 10:14:35;;;;;;;0.10;0.10;;;;;;;;;;4211174;28;20039;-35
2022/04/02 10:16:39;;;;;;;0.10;0.10;;;;;;;;;;4212803;28;20047;-35
2022/04/02 10:18:41;;;;;;;0.20;0.20;;;;;;;;;;4212641;28;20184;-34
2022/04/02 10:20:44;;;;;;;0.20;0.20;;;;;;;;;;4212522;28;20052;-34
2022/04/02 10:22:46;;;;;;;0.22;0.22;;;;;;;;;;4212817;28;20044;-34
2022/04/02 10:24:48;;;;;;;0.28;0.22;;;;;;;;;;4210961;28;20406;-35
2022/04/02 10:26:53;;;;;;;0.20;0.20;;;;;;;;;;4212985;28;20056;-34
2022/04/02 10:28:56;;;;;;;0.10;0.10;;;;;;;;;;4212442;28;20461;-34
2022/04/02 10:30:57;;;;;;;0.30;0.20;;;;;;;;;;4212229;28;20552;-34
2022/04/02 10:35:25;;;;;;;0.30;0.13;;;;;;;;;;4212395;28;20115;-34
2022/04/02 10:37:29;;;;;;;0.10;0.10;;;;;;;;;;4212174;28;20044;-34
2022/04/02 10:39:33;;;;;;;0.43;0.20;;;;;;;;;;4212380;28;20054;-34
2022/04/02 10:41:37;;;;;;;0.45;0.30;;;;;;;;;;4212141;28;20127;-34
2022/04/02 10:43:59;;;;;;;0.20;0.20;;;;;;;;;;4212590;28;20129;-34
2022/04/02 10:46:01;;;;;;;0.10;0.10;;;;;;;;;;4212152;28;20329;-34
2022/04/02 10:48:10;;;;;;;0.15;0.15;;;;;;;;;;4212088;28;20105;-35
2022/04/02 10:50:12;;;;;;;0.20;0.10;;;;;;;;;;4212118;28;20051;-34
2022/04/02 10:52:15;;;;;;;0.20;0.20;;;;;;;;;;4212221;28;20048;-34
2022/04/02 10:54:16;;;;;;;0.20;0.20;;;;;;;;;;4211935;28;20047;-35
2022/04/02 10:56:21;;;;;;;0.38;0.30;;;;;;;;;;4211547;28;20052;-35
2022/04/02 10:58:23;;;;;;;0.40;0.15;;;;;;;;;;4212170;28;20097;-34
2022/04/02 11:00:27;;;;;;;0.20;0.17;;;;;;;;;;4211824;28;20058;-34
2022/04/02 11:02:36;;;;;;;0.15;0.15;;;;;;;;;;4212166;28;20093;-35
2022/04/02 11:04:43;;;;;;;0.40;0.10;;;;;;;;;;4211834;28;20491;-35
2022/04/02 11:06:48;;;;;;;0.20;0.20;;;;;;;;;;4212309;28;20047;-34
2022/04/02 11:08:49;;;;;;;0.10;0.08;;;;;;;;;;4212257;28;20051;-35
2022/04/02 11:10:50;;;;;;;0.10;0.10;;;;;;;;;;4211361;28;20105;-34
2022/04/02 11:12:58;;;;;;;0.25;0.10;;;;;;;;;;4211707;28;20101;-35
2022/04/02 11:15:13;;;;;;;0.30;0.25;;;;;;;;;;4211793;28;20048;-34
2022/04/02 11:17:27;;;;;;;0.22;0.20;;;;;;;;;;4211968;28;20040;-35
2022/04/02 11:22:14;;;;;;;0.40;0.20;;;;;;;;;;4211676;28;20052;-35
2022/04/02 11:24:17;;;;;;;0.30;0.30;;;;;;;;;;4210499;28;20463;-35
2022/04/02 11:26:20;;;;;;;0.20;0.10;;;;;;;;;;4209933;28;20556;-35
2022/04/02 11:28:22;;;;;;;0.25;0.10;;;;;;;;;;4211514;28;20109;-35
2022/04/02 11:30:27;;;;;;;0.10;0.10;;;;;;;;;;4211675;28;20052;-35
2022/04/02 11:32:28;;;;;;;0.20;0.10;;;;;;;;;;4211630;28;20097;-34
2022/04/02 11:34:31;;;;;;;0.30;0.10;;;;;;;;;;4210061;28;20082;-35
2022/04/02 11:36:40;;;;;;;0.30;0.30;;;;;;;;;;4211714;28;20051;-35
2022/04/02 11:38:45;;;;;;;0.40;0.20;;;;;;;;;;4211770;28;20471;-34
2022/04/02 11:40:52;;;;;;;0.32;0.30;;;;;;;;;;4210059;28;20051;-35
2022/04/02 11:42:53;;;;;;;0.10;0.10;;;;;;;;;;4211611;28;20082;-35
2022/04/02 11:44:55;;;;;;;0.20;0.20;;;;;;;;;;4211482;28;20052;-34
2022/04/02 11:47:00;;;;;;;0.45;0.17;;;;;;;;;;4211775;28;20044;-35
2022/04/02 11:49:01;;;;;;;0.10;0.10;;;;;;;;;;4211426;28;20048;-34
2022/04/02 11:51:12;;;;;;;0.68;0.30;;;;;;;;;;4211092;28;20056;-35
2022/04/02 11:53:13;;;;;;;0.17;0.17;;;;;;;;;;4211378;28;20289;-34
2022/04/02 11:55:15;;;;;;;0.43;0.20;;;;;;;;;;4209646;28;20467;-34
2022/04/02 11:57:17;;;;;;;0.20;0.20;;;;;;;;;;4211412;28;20044;-34
2022/04/02 11:59:18;;;;;;;0.20;0.20;;;;;;;;;;4211493;28;20113;-34
2022/04/02 12:01:21;;;;;;;0.20;0.10;;;;;;;;;;4211229;28;20105;-34
2022/04/02 12:03:23;;;;;;;0.30;0.30;;;;;;;;;;4211317;28;20052;-34
2022/04/02 12:05:39;;;;;;;0.20;0.20;;;;;;;;;;4211324;28;20055;-34
2022/04/02 12:07:41;;;;;;;0.22;0.10;;;;;;;;;;4211326;28;20390;-35
2022/04/02 12:09:49;;;;;;;0.20;0.10;;;;;;;;;;4210717;28;20044;-34
2022/04/02 12:11:52;;;;;;;0.38;0.10;;;;;;;;;;4211409;28;20055;-34
2022/04/02 12:13:54;;;;;;;0.40;0.22;;;;;;;;;;4214822;28;20039;-34
2022/04/02 12:16:13;;;;;;;0.45;0.28;;;;;;;;;;4214269;28;20168;-34
2022/04/02 12:18:14;;;;;;;0.32;0.20;;;;;;;;;;4214380;28;20399;-35
2022/04/02 12:20:25;;;;;;;0.10;0.10;;;;;;;;;;4214627;28;20522;-34
2022/04/02 12:22:28;;;;;;;0.20;0.20;;;;;;;;;;4214464;28;20441;-34
2022/04/02 12:24:39;;;;;;;0.68;0.20;;;;;;;;;;4214744;28;20052;-34
2022/04/02 12:26:42;;;;;;;0.20;0.13;;;;;;;;;;4214366;28;20173;-34
2022/04/02 12:28:45;;;;;;;0.22;0.10;;;;;;;;;;4214473;28;20102;-34
2022/04/02 12:30:48;;;;;;;0.38;0.20;;;;;;;;;;4214054;28;20097;-34
2022/04/02 12:32:49;;;;;;;0.30;0.20;;;;;;;;;;4214502;28;20052;-34
2022/04/02 12:34:54;;;;;;;0.35;0.20;;;;;;;;;;4214118;28;20043;-34
2022/04/02 12:37:02;;;;;;;0.10;0.10;;;;;;;;;;4213067;28;20044;-34
2022/04/02 12:39:08;;;;;;;0.10;0.10;;;;;;;;;;4214298;28;20497;-34